createdAt,value
2022-08-17T00:00:43.993Z,23.10
2022-08-17T00:03:19.851Z,23.20
2022-08-17T00:05:51.738Z,23.20
2022-08-17T00:08:22.630Z,23.10
2022-08-17T00:10:52.255Z,23.20
2022-08-17T00:13:25.231Z,23.20
2022-08-17T00:15:56.768Z,23.10
2022-08-17T00:19:01.719Z,23.20
2022-08-17T00:21:17.224Z,23.10
2022-08-17T00:23:53.877Z,23.20
2022-08-17T00:26:35.860Z,23.20
2022-08-17T00:29:20.117Z,23.10
2022-08-17T00:31:50.592Z,23.20
2022-08-17T00:34:20.384Z,23.10
2022-08-17T00:36:49.843Z,23.20
2022-08-17T00:39:19.291Z,23.20
2022-08-17T00:41:48.987Z,23.10
2022-08-17T00:44:18.575Z,23.10
2022-08-17T00:46:49.056Z,23.20
2022-08-17T00:49:20.760Z,23.20
2022-08-17T00:51:51.993Z,23.20
2022-08-17T00:54:21.602Z,23.20
2022-08-17T00:56:53.184Z,23.20
2022-08-17T00:59:23.413Z,23.30
2022-08-17T01:01:52.997Z,23.20
2022-08-17T01:04:22.671Z,23.20
2022-08-17T01:06:52.271Z,23.20
2022-08-17T01:09:21.818Z,23.20
2022-08-17T01:11:53.255Z,23.20
2022-08-17T01:14:26.995Z,23.30
2022-08-17T01:16:56.738Z,23.30
2022-08-17T01:19:29.958Z,23.30
2022-08-17T01:22:17.869Z,23.30
2022-08-17T01:24:48.878Z,23.20
2022-08-17T01:27:20.680Z,23.20
2022-08-17T01:29:52.360Z,23.20
2022-08-17T01:32:22.029Z,23.20
2022-08-17T01:34:52.014Z,23.20
2022-08-17T01:37:22.395Z,23.20
2022-08-17T01:39:53.517Z,23.20
2022-08-17T01:42:32.636Z,23.20
2022-08-17T01:45:05.308Z,23.20
2022-08-17T01:47:36.093Z,23.20
2022-08-17T01:50:12.769Z,23.20
2022-08-17T01:52:42.389Z,23.30
2022-08-17T01:55:12.186Z,23.30
2022-08-17T01:57:41.757Z,23.30
2022-08-17T02:00:11.995Z,23.30
2022-08-17T02:02:42.511Z,23.40
2022-08-17T02:05:12.055Z,23.40
2022-08-17T02:07:59.785Z,23.40
2022-08-17T02:10:33.677Z,23.40
2022-08-17T02:13:04.349Z,23.40
2022-08-17T02:15:34.663Z,23.50
2022-08-17T02:18:04.705Z,23.50
2022-08-17T02:20:42.654Z,23.50
2022-08-17T02:23:13.152Z,23.50
2022-08-17T02:25:44.616Z,23.50
2022-08-17T02:28:14.163Z,23.50
2022-08-17T02:30:59.932Z,23.40
2022-08-17T02:33:41.759Z,23.40
2022-08-17T02:36:13.341Z,23.40
2022-08-17T02:38:43.029Z,23.40
2022-08-17T02:41:14.175Z,23.40
2022-08-17T02:43:44.052Z,23.40
2022-08-17T02:46:13.985Z,23.40
2022-08-17T02:48:43.554Z,23.30
2022-08-17T02:51:13.133Z,23.40
2022-08-17T02:53:42.599Z,23.40
2022-08-17T02:56:12.097Z,23.40
2022-08-17T02:58:41.684Z,23.40
2022-08-17T03:01:11.384Z,23.50
2022-08-17T03:03:40.881Z,23.40
2022-08-17T03:06:10.489Z,23.50
2022-08-17T03:08:39.988Z,23.50
2022-08-17T03:11:09.511Z,23.50
2022-08-17T03:13:39.014Z,23.50
2022-08-17T03:16:10.240Z,23.60
2022-08-17T03:18:39.691Z,23.50
2022-08-17T03:21:10.742Z,23.60
2022-08-17T03:23:42.293Z,23.60
2022-08-17T03:26:15.566Z,23.60
2022-08-17T03:28:46.454Z,23.60
2022-08-17T03:31:15.911Z,23.60
2022-08-17T03:33:45.616Z,23.70
2022-08-17T03:36:15.235Z,23.70
2022-08-17T03:38:45.099Z,23.70
2022-08-17T03:41:15.095Z,23.70
2022-08-17T03:43:44.606Z,23.70
2022-08-17T03:46:35.164Z,23.70
2022-08-17T03:49:23.737Z,23.70
2022-08-17T03:52:11.537Z,23.70
2022-08-17T03:54:59.261Z,23.70
2022-08-17T03:57:28.945Z,23.70
2022-08-17T03:59:58.431Z,23.70
2022-08-17T04:02:32.327Z,23.70
2022-08-17T04:05:01.855Z,23.80
2022-08-17T04:07:31.726Z,23.80
2022-08-17T04:10:01.309Z,23.90
2022-08-17T04:12:31.881Z,23.90
2022-08-17T04:15:01.487Z,23.90
2022-08-17T04:17:31.048Z,23.90
2022-08-17T04:20:00.559Z,23.90
2022-08-17T04:22:44.123Z,23.90
2022-08-17T04:25:18.686Z,23.90
2022-08-17T04:27:49.882Z,23.90
2022-08-17T04:30:19.379Z,24.00
2022-08-17T04:33:05.746Z,24.00
2022-08-17T04:35:37.880Z,24.00
2022-08-17T04:38:07.888Z,24.00
2022-08-17T04:40:56.816Z,24.00
2022-08-17T04:43:27.500Z,24.10
2022-08-17T04:45:59.670Z,24.10
2022-08-17T04:48:36.320Z,24.20
2022-08-17T04:51:08.348Z,24.10
2022-08-17T04:53:37.927Z,24.20
2022-08-17T04:56:07.526Z,24.20
2022-08-17T04:58:41.401Z,24.30
2022-08-17T05:01:11.240Z,24.30
2022-08-17T05:03:40.850Z,24.30
2022-08-17T05:06:10.767Z,24.30
2022-08-17T05:08:40.754Z,24.40
2022-08-17T05:11:10.344Z,24.40
2022-08-17T05:13:39.850Z,24.40
2022-08-17T05:16:10.314Z,24.40
2022-08-17T05:18:40.188Z,24.30
2022-08-17T05:21:09.899Z,24.40
2022-08-17T05:23:42.813Z,24.40
2022-08-17T05:26:23.157Z,24.40
2022-08-17T05:28:59.466Z,24.40
2022-08-17T05:31:30.567Z,24.50
2022-08-17T05:34:00.293Z,24.50
2022-08-17T05:36:42.048Z,24.50
2022-08-17T05:39:15.888Z,24.50
2022-08-17T05:41:48.818Z,24.60
2022-08-17T05:44:18.472Z,24.60
2022-08-17T05:46:51.100Z,24.60
2022-08-17T05:49:28.376Z,24.60
2022-08-17T05:52:03.871Z,24.60
2022-08-17T05:54:42.221Z,24.60
2022-08-17T05:57:29.832Z,24.60
2022-08-17T06:00:01.754Z,24.70
2022-08-17T06:03:00.313Z,24.70
2022-08-17T06:05:36.019Z,24.70
2022-08-17T06:08:08.240Z,24.80
2022-08-17T06:10:56.835Z,24.80
2022-08-17T06:13:26.370Z,24.80
2022-08-17T06:15:58.122Z,24.90
2022-08-17T06:18:28.493Z,24.80
2022-08-17T06:20:59.454Z,24.80
2022-08-17T06:23:34.311Z,24.90
2022-08-17T06:26:06.201Z,24.90
2022-08-17T06:28:38.421Z,25.00
2022-08-17T06:31:09.820Z,24.90
2022-08-17T06:33:40.665Z,24.90
2022-08-17T06:36:31.903Z,24.90
2022-08-17T06:39:01.492Z,25.00
2022-08-17T06:41:54.010Z,25.10
2022-08-17T06:44:43.238Z,25.00
2022-08-17T06:47:28.635Z,25.00
2022-08-17T06:50:07.153Z,25.10
2022-08-17T06:52:46.407Z,25.20
2022-08-17T06:55:22.415Z,25.10
2022-08-17T06:57:53.367Z,25.00
2022-08-17T07:00:27.935Z,25.10
2022-08-17T07:03:09.907Z,25.20
2022-08-17T07:05:43.031Z,25.30
2022-08-17T07:08:35.351Z,25.40
2022-08-17T07:11:07.431Z,25.50
2022-08-17T07:13:51.624Z,27.40
2022-08-17T07:16:30.852Z,28.50
2022-08-17T07:19:00.823Z,29.20
2022-08-17T07:21:30.245Z,29.40
2022-08-17T07:24:29.508Z,29.80
2022-08-17T07:27:11.029Z,30.20
2022-08-17T07:29:41.591Z,29.40
2022-08-17T07:32:11.507Z,29.80
2022-08-17T07:34:59.477Z,30.20
2022-08-17T07:37:30.328Z,30.20
2022-08-17T07:40:16.047Z,30.40
2022-08-17T07:43:04.959Z,30.10
2022-08-17T07:45:52.835Z,29.30
2022-08-17T07:48:23.972Z,29.10
2022-08-17T07:50:54.472Z,29.30
2022-08-17T07:53:25.383Z,29.50
2022-08-17T07:55:55.071Z,29.70
2022-08-17T07:58:25.116Z,29.60
2022-08-17T08:01:05.660Z,29.70
2022-08-17T08:03:37.202Z,29.60
2022-08-17T08:06:19.314Z,29.70
2022-08-17T08:08:52.157Z,29.80
2022-08-17T08:11:32.344Z,29.80
2022-08-17T08:14:31.193Z,29.90
2022-08-17T08:17:02.028Z,29.90
2022-08-17T08:19:31.644Z,29.90
2022-08-17T08:22:01.176Z,29.90
2022-08-17T08:24:43.079Z,29.90
2022-08-17T08:27:17.064Z,29.90
2022-08-17T08:30:01.720Z,29.90
2022-08-17T08:32:34.510Z,29.90
2022-08-17T08:35:10.065Z,29.90
2022-08-17T08:37:58.022Z,30.00
2022-08-17T08:40:27.441Z,29.90
2022-08-17T08:43:05.069Z,29.90
2022-08-17T08:45:47.785Z,29.80
2022-08-17T08:48:52.742Z,29.70
2022-08-17T08:51:22.674Z,29.40
2022-08-17T08:53:53.112Z,28.90
2022-08-17T08:57:11.641Z,28.60
2022-08-17T08:59:34.142Z,28.40
2022-08-17T09:02:30.139Z,28.20
2022-08-17T09:05:24.596Z,28.00
2022-08-17T09:08:01.651Z,27.90
2022-08-17T09:10:31.254Z,27.70
2022-08-17T09:13:09.328Z,27.60
2022-08-17T09:15:41.898Z,27.50
2022-08-17T09:19:02.528Z,27.50
2022-08-17T09:21:15.056Z,27.30
2022-08-17T09:24:05.863Z,27.20
2022-08-17T09:26:36.332Z,27.20
2022-08-17T09:29:08.171Z,27.00
2022-08-17T09:31:48.797Z,27.00
2022-08-17T09:34:19.829Z,26.90
2022-08-17T09:36:51.216Z,26.80
2022-08-17T09:39:32.030Z,26.80
2022-08-17T09:42:07.976Z,26.70
2022-08-17T09:44:39.897Z,26.60
2022-08-17T09:47:47.143Z,26.60
2022-08-17T09:51:05.342Z,26.60
2022-08-17T09:53:37.379Z,26.50
2022-08-17T09:56:06.796Z,26.40
2022-08-17T09:58:57.592Z,26.30
2022-08-17T10:01:32.880Z,26.30
2022-08-17T10:04:08.272Z,26.20
2022-08-17T10:06:48.354Z,26.20
2022-08-17T10:09:19.970Z,26.10
2022-08-17T10:12:12.935Z,26.10
2022-08-17T10:15:07.915Z,26.10
2022-08-17T10:17:57.608Z,26.00
2022-08-17T10:20:32.873Z,26.00
2022-08-17T10:23:26.228Z,25.90
2022-08-17T10:26:06.980Z,25.90
2022-08-17T10:28:44.808Z,25.90
2022-08-17T10:31:34.327Z,25.80
2022-08-17T10:34:13.136Z,25.80
2022-08-17T10:36:42.612Z,25.80
2022-08-17T10:39:15.127Z,25.80
2022-08-17T10:41:45.861Z,25.70
2022-08-17T10:44:37.935Z,25.70
2022-08-17T10:47:08.689Z,25.60
2022-08-17T10:49:39.103Z,25.60
2022-08-17T10:52:28.371Z,25.50
2022-08-17T10:55:00.743Z,25.50
2022-08-17T10:57:35.717Z,25.40
2022-08-17T11:00:11.417Z,25.40
2022-08-17T11:02:54.001Z,25.40
2022-08-17T11:05:38.952Z,25.30
2022-08-17T11:08:12.950Z,25.30
2022-08-17T11:10:52.239Z,25.30
2022-08-17T11:13:41.135Z,25.20
2022-08-17T11:16:10.644Z,25.20
2022-08-17T11:18:49.554Z,25.20
2022-08-17T11:21:19.188Z,25.10
2022-08-17T11:23:52.311Z,25.10
2022-08-17T11:26:27.456Z,25.00
2022-08-17T11:29:06.400Z,25.00
2022-08-17T11:31:41.259Z,24.90
2022-08-17T11:34:10.782Z,24.90
2022-08-17T11:36:46.617Z,24.90
2022-08-17T11:39:31.998Z,24.80
2022-08-17T11:42:06.644Z,24.80
2022-08-17T11:44:41.971Z,24.70
2022-08-17T11:47:29.562Z,24.70
2022-08-17T11:50:27.589Z,24.70
2022-08-17T11:52:57.422Z,24.60
2022-08-17T11:55:36.624Z,24.60
2022-08-17T11:58:27.093Z,24.50
2022-08-17T12:00:59.741Z,24.50
2022-08-17T12:03:35.076Z,24.50
2022-08-17T12:06:07.463Z,24.50
2022-08-17T12:08:37.227Z,24.40
2022-08-17T12:11:13.475Z,24.40
2022-08-17T12:13:47.319Z,24.30
2022-08-17T12:16:20.476Z,24.30
2022-08-17T12:18:59.720Z,24.30
2022-08-17T12:21:48.656Z,24.30
2022-08-17T12:24:18.148Z,24.20
2022-08-17T12:26:52.539Z,24.20
2022-08-17T12:29:35.494Z,24.20
2022-08-17T12:32:08.302Z,24.20
2022-08-17T12:34:42.009Z,24.20
2022-08-17T12:37:25.596Z,24.10
2022-08-17T12:40:05.742Z,24.10
2022-08-17T12:42:38.877Z,24.10
2022-08-17T12:45:08.989Z,24.10
2022-08-17T12:47:41.202Z,24.00
2022-08-17T12:50:28.660Z,24.00
2022-08-17T12:53:02.244Z,24.00
2022-08-17T12:55:33.790Z,23.90
2022-08-17T12:58:03.472Z,24.00
2022-08-17T13:00:36.496Z,24.00
2022-08-17T13:03:08.921Z,23.90
2022-08-17T13:05:40.555Z,23.90
2022-08-17T13:08:17.053Z,23.90
2022-08-17T13:10:54.828Z,23.90
2022-08-17T13:13:25.603Z,23.90
2022-08-17T13:15:56.068Z,23.90
2022-08-17T13:18:34.765Z,23.90
2022-08-17T13:21:04.284Z,23.90
2022-08-17T13:23:33.865Z,23.80
2022-08-17T13:26:08.799Z,23.80
2022-08-17T13:28:39.995Z,23.80
2022-08-17T13:31:31.357Z,23.70
2022-08-17T13:34:33.501Z,23.80
2022-08-17T13:37:21.198Z,23.80
2022-08-17T13:39:52.838Z,23.70
2022-08-17T13:42:31.665Z,23.70
2022-08-17T13:45:01.683Z,23.70
2022-08-17T13:47:51.176Z,23.70
2022-08-17T13:50:21.752Z,23.70
2022-08-17T13:52:52.211Z,23.70
2022-08-17T13:55:22.981Z,23.70
2022-08-17T13:58:06.522Z,23.70
2022-08-17T14:00:37.506Z,23.70
2022-08-17T14:03:06.975Z,23.70
2022-08-17T14:05:38.050Z,23.70
2022-08-17T14:08:07.756Z,23.70
2022-08-17T14:10:37.693Z,23.60
2022-08-17T14:13:07.501Z,23.60
2022-08-17T14:15:55.724Z,23.60
2022-08-17T14:18:49.851Z,23.60
2022-08-17T14:21:15.824Z,23.60
2022-08-17T14:23:49.963Z,23.60
2022-08-17T14:26:24.944Z,23.60
2022-08-17T14:28:56.310Z,23.60
2022-08-17T14:31:26.518Z,23.50
2022-08-17T14:33:56.510Z,23.50
2022-08-17T14:36:25.982Z,23.50
2022-08-17T14:38:55.477Z,23.50
2022-08-17T14:41:25.557Z,23.60
2022-08-17T14:43:55.133Z,23.50
2022-08-17T14:46:24.639Z,23.60
2022-08-17T14:48:57.360Z,23.50
2022-08-17T14:51:28.731Z,23.50
2022-08-17T14:53:58.507Z,23.50
2022-08-17T14:56:35.327Z,23.50
2022-08-17T14:59:07.773Z,23.50
2022-08-17T15:01:38.016Z,23.50
2022-08-17T15:04:08.194Z,23.50
2022-08-17T15:06:37.622Z,23.50
2022-08-17T15:09:07.098Z,23.50
2022-08-17T15:11:36.516Z,23.50
2022-08-17T15:14:06.010Z,23.50
2022-08-17T15:16:36.946Z,23.50
2022-08-17T15:19:07.104Z,23.50
2022-08-17T15:21:37.107Z,23.50
2022-08-17T15:24:06.938Z,23.50
2022-08-17T15:26:36.788Z,23.40
2022-08-17T15:29:06.495Z,23.50
2022-08-17T15:31:38.821Z,23.40
2022-08-17T15:34:08.312Z,23.40
2022-08-17T15:36:40.658Z,23.40
2022-08-17T15:39:19.523Z,23.40
2022-08-17T15:41:58.056Z,23.40
2022-08-17T15:44:32.687Z,23.40
2022-08-17T15:47:04.964Z,23.40
2022-08-17T15:49:34.541Z,23.40
2022-08-17T15:52:06.340Z,23.40
2022-08-17T15:54:36.855Z,23.40
2022-08-17T15:57:08.438Z,23.40
2022-08-17T15:59:38.008Z,23.40
2022-08-17T16:03:13.587Z,23.40
2022-08-17T16:05:04.090Z,23.40
2022-08-17T16:07:42.980Z,23.40
2022-08-17T16:10:18.223Z,23.40
2022-08-17T16:12:48.737Z,23.30
2022-08-17T16:15:18.462Z,23.40
2022-08-17T16:17:47.977Z,23.30
2022-08-17T16:20:20.290Z,23.30
2022-08-17T16:22:50.783Z,23.30
2022-08-17T16:25:49.219Z,23.30
2022-08-17T16:28:17.854Z,23.30
2022-08-17T16:30:47.416Z,23.30
2022-08-17T16:33:17.928Z,23.30
2022-08-17T16:35:47.798Z,23.30
2022-08-17T16:38:17.295Z,23.30
2022-08-17T16:40:46.859Z,23.20
2022-08-17T16:43:17.837Z,23.30
2022-08-17T16:45:51.948Z,23.30
2022-08-17T16:48:21.757Z,23.20
2022-08-17T16:51:02.966Z,23.30
2022-08-17T16:53:35.915Z,23.30
2022-08-17T16:56:06.227Z,23.20
2022-08-17T16:58:35.896Z,23.30
2022-08-17T17:01:06.713Z,23.30
2022-08-17T17:03:36.226Z,23.20
2022-08-17T17:06:23.956Z,23.20
2022-08-17T17:08:55.461Z,23.20
2022-08-17T17:11:28.347Z,23.20
2022-08-17T17:14:03.246Z,23.20
2022-08-17T17:16:51.484Z,23.20
2022-08-17T17:19:34.700Z,23.20
2022-08-17T17:22:37.254Z,23.20
2022-08-17T17:25:06.754Z,23.20
2022-08-17T17:27:43.677Z,23.20
2022-08-17T17:30:15.236Z,23.20
2022-08-17T17:32:44.833Z,23.20
2022-08-17T17:35:18.947Z,23.20
2022-08-17T17:37:48.534Z,23.20
2022-08-17T17:40:22.612Z,23.10
2022-08-17T17:42:56.397Z,23.10
2022-08-17T17:45:27.219Z,23.10
2022-08-17T17:47:56.767Z,23.10
2022-08-17T17:50:31.081Z,23.10
2022-08-17T17:53:03.210Z,23.10
2022-08-17T17:55:41.430Z,23.10
2022-08-17T17:58:31.000Z,23.10
2022-08-17T18:01:18.980Z,23.10
2022-08-17T18:03:54.095Z,23.00
2022-08-17T18:06:26.549Z,23.00
2022-08-17T18:09:10.896Z,23.00
2022-08-17T18:11:58.925Z,23.00
2022-08-17T18:14:31.303Z,23.00
2022-08-17T18:17:01.143Z,23.00
2022-08-17T18:19:31.122Z,23.00
2022-08-17T18:22:03.553Z,23.00
2022-08-17T18:24:39.608Z,23.00
2022-08-17T18:27:24.449Z,23.00
2022-08-17T18:29:55.185Z,23.00
2022-08-17T18:32:30.664Z,22.90
2022-08-17T18:35:00.682Z,22.90
2022-08-17T18:37:43.892Z,23.00
2022-08-17T18:40:16.504Z,22.90
2022-08-17T18:42:52.031Z,22.90
2022-08-17T18:45:39.934Z,22.90
2022-08-17T18:48:23.508Z,22.90
2022-08-17T18:50:54.166Z,22.90
2022-08-17T18:53:26.709Z,22.90
2022-08-17T18:56:20.857Z,22.90
2022-08-17T18:59:07.972Z,22.90
2022-08-17T19:01:52.705Z,22.80
2022-08-17T19:04:40.991Z,22.80
2022-08-17T19:07:25.294Z,22.80
2022-08-17T19:09:57.632Z,22.80
2022-08-17T19:12:43.162Z,22.80
2022-08-17T19:15:14.298Z,22.80
2022-08-17T19:17:54.490Z,22.80
2022-08-17T19:20:25.816Z,22.80
2022-08-17T19:23:18.653Z,22.80
2022-08-17T19:25:50.225Z,22.80
2022-08-17T19:28:38.875Z,22.80
2022-08-17T19:31:18.349Z,22.80
2022-08-17T19:33:48.234Z,22.80
2022-08-17T19:36:36.591Z,22.80
2022-08-17T19:39:38.748Z,22.80
2022-08-17T19:42:14.228Z,22.70
2022-08-17T19:44:56.094Z,22.70
2022-08-17T19:47:51.487Z,22.80
2022-08-17T19:50:16.397Z,22.70
2022-08-17T19:52:47.617Z,22.70
2022-08-17T19:55:31.565Z,22.70
2022-08-17T19:58:17.940Z,22.70
2022-08-17T20:00:51.337Z,22.70
2022-08-17T20:03:33.679Z,22.70
2022-08-17T20:06:19.093Z,22.70
2022-08-17T20:09:15.199Z,22.70
2022-08-17T20:11:51.271Z,22.60
2022-08-17T20:14:22.335Z,22.60
2022-08-17T20:16:51.825Z,22.60
2022-08-17T20:19:37.268Z,22.60
2022-08-17T20:22:25.185Z,22.60
2022-08-17T20:25:14.973Z,22.60
2022-08-17T20:28:12.754Z,22.60
2022-08-17T20:30:43.553Z,22.60
2022-08-17T20:33:25.679Z,22.60
2022-08-17T20:36:01.432Z,22.60
2022-08-17T20:38:57.150Z,22.60
2022-08-17T20:41:27.435Z,22.60
2022-08-17T20:43:56.866Z,22.60
2022-08-17T20:46:35.149Z,22.60
2022-08-17T20:49:10.681Z,22.60
2022-08-17T20:52:00.588Z,22.50
2022-08-17T20:54:42.723Z,22.60
2022-08-17T20:57:32.400Z,22.60
2022-08-17T21:00:05.368Z,22.50
2022-08-17T21:02:38.244Z,22.50
2022-08-17T21:05:27.388Z,22.50
2022-08-17T21:08:14.079Z,22.50
2022-08-17T21:10:48.137Z,22.50
2022-08-17T21:13:17.612Z,22.50
2022-08-17T21:15:49.943Z,22.50
2022-08-17T21:18:22.454Z,22.50
2022-08-17T21:21:14.151Z,22.50
2022-08-17T21:24:22.248Z,22.50
2022-08-17T21:27:09.824Z,22.50
2022-08-17T21:29:52.196Z,22.50
2022-08-17T21:32:29.277Z,22.50
2022-08-17T21:35:17.588Z,22.40
2022-08-17T21:37:47.878Z,22.40
2022-08-17T21:40:20.478Z,22.40
2022-08-17T21:42:54.924Z,22.40
2022-08-17T21:45:28.628Z,22.40
2022-08-17T21:48:17.469Z,22.40
2022-08-17T21:50:51.031Z,22.40
2022-08-17T21:53:32.245Z,22.40
2022-08-17T21:56:02.503Z,22.40
2022-08-17T21:58:33.175Z,22.40
2022-08-17T22:01:22.142Z,22.40
2022-08-17T22:04:06.718Z,22.40
2022-08-17T22:06:37.770Z,22.40
2022-08-17T22:09:15.619Z,22.40
2022-08-17T22:12:05.241Z,22.40
2022-08-17T22:14:53.424Z,22.40
2022-08-17T22:17:37.099Z,22.40
2022-08-17T22:20:11.677Z,22.40
2022-08-17T22:22:59.187Z,22.30
2022-08-17T22:25:28.835Z,22.40
2022-08-17T22:27:59.219Z,22.30
2022-08-17T22:30:38.087Z,22.30
2022-08-17T22:33:26.371Z,22.30
2022-08-17T22:36:12.637Z,22.30
2022-08-17T22:38:43.611Z,22.30
2022-08-17T22:41:33.012Z,22.30
2022-08-17T22:44:24.269Z,22.30
2022-08-17T22:47:11.394Z,22.30
2022-08-17T22:49:58.921Z,22.30
2022-08-17T22:52:34.495Z,22.40
2022-08-17T22:55:24.020Z,22.30
2022-08-17T22:58:11.834Z,22.40
2022-08-17T23:00:42.522Z,22.30
2022-08-17T23:03:21.947Z,22.30
2022-08-17T23:06:04.611Z,22.30
2022-08-17T23:08:36.631Z,22.30
2022-08-17T23:11:06.986Z,22.20
2022-08-17T23:13:38.032Z,22.30
2022-08-17T23:16:07.640Z,22.30
2022-08-17T23:18:37.515Z,22.20
2022-08-17T23:21:08.521Z,22.30
2022-08-17T23:23:42.977Z,22.30
2022-08-17T23:26:12.436Z,22.30
2022-08-17T23:28:42.250Z,22.30
2022-08-17T23:31:12.163Z,22.20
2022-08-17T23:33:41.762Z,22.30
2022-08-17T23:36:16.164Z,22.20
2022-08-17T23:38:45.852Z,22.30
2022-08-17T23:41:16.260Z,22.30
2022-08-17T23:43:46.203Z,22.30
2022-08-17T23:46:15.673Z,22.30
2022-08-17T23:48:45.412Z,22.30
2022-08-17T23:51:20.317Z,22.20
2022-08-17T23:53:51.269Z,22.30
2022-08-17T23:56:27.107Z,22.20
2022-08-17T23:58:56.641Z,22.30
